aviador You're here:

KUZA Decoded Metar

ROCK HILL in SC, USA
Report Time2017-07-21 03:54:00
UTC Time2017-07-21 04:40:49
Flight Rules vfr VFR
Wind230° at 06 kt
W.Decomp.*RWY 20: 4.9 kt HW 3.4 kt RCW
W.Rank230° ranks 4
Current wind is below 230° avg. (6.8)
Visibility9999 m
Phenomena:N/A
Clouds:N/A
Expected CloudBase > 1,200 ft AGL from Temp-Dew spread
CeilingNone
Temp24°C (ISA +10)
Dew Point21°C (83% RH)
QNH1018 hPa
Density Alt2,021 ft
Elevation663 ft
Report Wrong Elevation
Raw Report
KUZA 210354Z AUTO 23006KT 10SM CLR 24/21 A3006 RMK AO2 SLP161
T02440206=

Extra information for KUZA:More info

Metar Taf Metar & Taf Last 4 Metars F.Rules Stats Wind Profile Meteogram Temp Stats Airport Information Weather charts Add Link Nearby VenuesMetar ALERT Operation Metar Decoded Social comments

AIRNAV info for KUZA